Cave Springs, AR

6:00 PM CST on February 13, 2016 (GMT -0600)
Possum Oaks | | Change Station
CLOSE
Current Station
Personal Weather Station
Location: Cave Springs, AR
Elevation: 1204 ft
Nearby Weather Stations
Active Advisory: Winter Weather Advisory

Elev 1204 ft 36.26 °N, 94.22 °W | Updated 3 seconds ago

Partly Cloudy
Partly Cloudy
46.4 °F
Feels Like 46 °F
N
2.2
Wind Variable Wind from NE
Gusts 7.6 mph

Today
High -- | Low -- °F
--% Chance of Precip.
Yesterday
High -- | Low -- °F
Precip. -- in
Pressure 30.23 in
Visibility 10.0 miles
Clouds Clear
Windchill 46 °F
Dew Point 14 °F
Humidity 27%
Rainfall 0.00 in
Snow Depth Not available.
7:07 AM 5:55 PM
Waxing Crescent, 35% visible
METAR KVBT 132355Z AUTO 13008KT 10SM CLR 07/M12 A3023 RMK AO1 10090 20040 400901020 57030
Pressure 30.23 in
Visibility 10.0 miles
Clouds Clear
Windchill 46 °F
Dew Point 14 °F
Humidity 27%
Rainfall 0.00 in
Snow Depth Not available.
7:07 AM 5:55 PM
Waxing Crescent, 35% visible
METAR KVBT 132355Z AUTO 13008KT 10SM CLR 07/M12 A3023 RMK AO1 10090 20040 400901020 57030

10-Day Weather Forecast

Almanac

Astronomy

Feb. 13, 2016 Rise Set
Actual Time
Civil Twilight
Nautical Twilight
Astronomical Twilight
Moon
Length of Visible Light
Length of Day
Tomorrow will be .
, % of the Moon is Illuminated

Today's Extremes

State Highs State Lows

Community

WunderPhotos

Upload Photos

1,892,705 photos uploaded!

WunderBlog® & News

Nearby

Air Quality

  Air Quality AQ Index Pollutant
Not available.

Snow Depth

Station Depth Elevation

Earthquake Activity

City Distance Mag. Time & Date
Minimum magnitude displayed is 2.5.

Coastal Water Temperatures

Place Temperature

Stations

Nearby Weather Stations

Station Location Temp. Windchill Dew Point Humidity Wind Precip. Elev Updated Type
                   

Watches & Warnings

Winter Weather Advisory
Issued: 3:03 PM CST Feb. 13, 2016 – National Weather Service

... Winter Weather Advisory in effect from midnight tonight to
10 am CST Sunday...

The National Weather Service in Tulsa has issued a Winter Weather
Advisory... which is in effect from midnight tonight to 10 am CST
Sunday.

* Affected area... in Arkansas... Benton... Carroll... Washington...
Madison... Crawford... and Franklin counties.

* Timing... patches of freezing drizzle and light freezing rain
will be possible late tonight into Sunday morning.

* Main impact... ice accumulations of less than one-tenth of an inch
will occur mainly on elevated surfaces such as bridges and overpasses
creating hazardous driving conditions.

Precautionary/preparedness actions...

* a Winter Weather Advisory means that wintry precipitation may
cause travel difficulties.